CYXC

Cranbrook Airport

Cranbrook, British Columbia, Canada
METAR CYXC 231000Z VRB03KT 25SM FEW070 M04/M07 A3016 RMK AC1 SLP249
Observed Flight Rules
Jan-23 @ 10:00 UTC (2 hours ago) Visual Flight Rules
Wind Visibility Clouds
Variable at 3 knots 25 miles
  • Few at 7,000' AGL
Temperatures Readings
Current -4°C / 25°F
Dewpoint -7°C / 19°F
Humidity 80%
Altimeter 30.16" Hg
Pressure 1024.9 hPa
Elevation 939
METAR CYXC 231000Z VRB03KT 25SM FEW070 M04/M07 A3016 RMK AC1 SLP249
Observed Flight Rules
Jan-23 @ 10:00 UTC
(2 hours ago)
VFR
Wind Visibility
Variable at 3 knots 25 miles
Clouds
  • Few at 7,000' AGL
Temperature Dewpoint
-4°C / 25°F -7°C / 19°F
Humidity Altimeter Pressure
80% 30.16" Hg 1024.9 hPa